createdAt,value
2019-03-12T00:00:31.045Z,1011.35
2019-03-12T00:01:31.119Z,1011.35
2019-03-12T00:02:31.128Z,1011.37
2019-03-12T00:03:31.118Z,1011.34
2019-03-12T00:04:31.058Z,1011.36
2019-03-12T00:05:31.117Z,1011.38
2019-03-12T00:06:31.124Z,1011.38
2019-03-12T00:07:31.077Z,1011.38
2019-03-12T00:08:31.053Z,1011.36
2019-03-12T00:09:31.061Z,1011.40
2019-03-12T00:10:31.069Z,1011.40
2019-03-12T00:11:31.126Z,1011.39
2019-03-12T00:12:31.125Z,1011.38
2019-03-12T00:13:31.055Z,1011.37
2019-03-12T00:14:31.077Z,1011.38
2019-03-12T00:15:31.057Z,1011.37
2019-03-12T00:16:31.071Z,1011.36
2019-03-12T00:17:31.136Z,1011.34
2019-03-12T00:18:31.059Z,1011.28
2019-03-12T00:19:31.069Z,1011.32
2019-03-12T00:20:31.137Z,1011.32
2019-03-12T00:21:31.132Z,1011.30
2019-03-12T00:22:31.166Z,1011.34
2019-03-12T00:23:31.065Z,1011.30
2019-03-12T00:24:31.051Z,1011.34
2019-03-12T00:25:31.055Z,1011.40
2019-03-12T00:26:31.125Z,1011.43
2019-03-12T00:27:31.095Z,1011.43
2019-03-12T00:28:31.060Z,1011.43
2019-03-12T00:29:31.127Z,1011.40
2019-03-12T00:30:31.128Z,1011.36
2019-03-12T00:31:31.065Z,1011.37
2019-03-12T00:32:31.057Z,1011.37
2019-03-12T00:33:31.055Z,1011.31
2019-03-12T00:34:31.142Z,1011.35
2019-03-12T00:35:31.080Z,1011.36
2019-03-12T00:36:31.074Z,1011.32
2019-03-12T00:37:31.149Z,1011.35
2019-03-12T00:38:31.083Z,1011.34
2019-03-12T00:39:31.075Z,1011.30
2019-03-12T00:40:31.095Z,1011.30
2019-03-12T00:41:31.107Z,1011.30
2019-03-12T00:42:31.089Z,1011.33
2019-03-12T00:43:31.038Z,1011.33
2019-03-12T00:44:31.075Z,1011.30
2019-03-12T00:45:31.140Z,1011.32
2019-03-12T00:46:31.145Z,1011.32
2019-03-12T00:47:31.140Z,1011.29
2019-03-12T00:48:31.120Z,1011.32
2019-03-12T00:49:31.071Z,1011.30
2019-03-12T00:50:31.143Z,1011.31
2019-03-12T00:51:31.073Z,1011.31
2019-03-12T00:52:31.157Z,1011.35
2019-03-12T00:53:31.166Z,1011.32
2019-03-12T00:54:31.083Z,1011.34
2019-03-12T00:55:31.164Z,1011.30
2019-03-12T00:56:31.165Z,1011.32
2019-03-12T00:57:31.220Z,1011.32
2019-03-12T00:58:31.163Z,1011.28
2019-03-12T00:59:31.087Z,1011.28
2019-03-12T01:00:31.183Z,1011.32
2019-03-12T01:01:31.093Z,1011.34
2019-03-12T01:02:31.162Z,1011.30
2019-03-12T01:03:31.164Z,1011.38
2019-03-12T01:04:31.103Z,1011.37
2019-03-12T01:05:31.109Z,1011.37
2019-03-12T01:06:31.171Z,1011.40
2019-03-12T01:07:31.114Z,1011.41
2019-03-12T01:08:31.106Z,1011.44
2019-03-12T01:09:31.095Z,1011.42
2019-03-12T01:10:31.061Z,1011.40
2019-03-12T01:11:31.115Z,1011.43
2019-03-12T01:12:31.172Z,1011.44
2019-03-12T01:13:31.184Z,1011.41
2019-03-12T01:14:31.110Z,1011.46
2019-03-12T01:15:31.117Z,1011.48
2019-03-12T01:16:31.180Z,1011.49
2019-03-12T01:17:31.184Z,1011.53
2019-03-12T01:18:31.127Z,1011.52
2019-03-12T01:19:31.114Z,1011.62
2019-03-12T01:20:31.181Z,1011.57
2019-03-12T01:21:31.124Z,1011.57
2019-03-12T01:22:31.117Z,1011.58
2019-03-12T01:23:31.125Z,1011.57
2019-03-12T01:24:31.197Z,1011.58
2019-03-12T01:25:31.167Z,1011.65
2019-03-12T01:26:31.110Z,1011.62
2019-03-12T01:27:31.175Z,1011.61
2019-03-12T01:28:31.110Z,1011.61
2019-03-12T01:29:31.099Z,1011.64
2019-03-12T01:30:31.171Z,1011.58
2019-03-12T01:31:31.114Z,1011.63
2019-03-12T01:32:31.174Z,1011.62
2019-03-12T01:33:31.101Z,1011.66
2019-03-12T01:34:31.188Z,1011.66
2019-03-12T01:35:31.072Z,1011.65
2019-03-12T01:36:31.079Z,1011.64
2019-03-12T01:37:31.130Z,1011.62
2019-03-12T01:38:31.134Z,1011.61
2019-03-12T01:39:31.182Z,1011.58
2019-03-12T01:40:31.185Z,1011.61
2019-03-12T01:41:31.140Z,1011.62
2019-03-12T01:42:31.191Z,1011.63
2019-03-12T01:43:31.193Z,1011.64
2019-03-12T01:44:31.208Z,1011.60
2019-03-12T01:45:31.194Z,1011.58
2019-03-12T01:46:31.200Z,1011.63
2019-03-12T01:47:31.184Z,1011.65
2019-03-12T01:48:31.193Z,1011.64
2019-03-12T01:49:31.196Z,1011.65
2019-03-12T01:50:31.186Z,1011.64
2019-03-12T01:51:31.476Z,1011.61
2019-03-12T01:52:31.206Z,1011.64
2019-03-12T01:53:31.140Z,1011.64
2019-03-12T01:54:31.208Z,1011.63
2019-03-12T01:55:31.198Z,1011.62
2019-03-12T01:56:31.146Z,1011.63
2019-03-12T01:57:31.136Z,1011.62
2019-03-12T01:58:31.130Z,1011.64
2019-03-12T01:59:31.203Z,1011.65
2019-03-12T02:00:31.131Z,1011.69
2019-03-12T02:01:31.203Z,1011.67
2019-03-12T02:02:31.215Z,1011.62
2019-03-12T02:03:31.135Z,1011.66
2019-03-12T02:04:31.145Z,1011.68
2019-03-12T02:05:31.133Z,1011.66
2019-03-12T02:06:31.213Z,1011.65
2019-03-12T02:07:31.233Z,1011.66
2019-03-12T02:08:31.100Z,1011.63
2019-03-12T02:09:31.270Z,1011.60
2019-03-12T02:10:31.150Z,1011.61
2019-03-12T02:11:31.149Z,1011.63
2019-03-12T02:12:31.153Z,1011.63
2019-03-12T02:13:31.157Z,1011.63
2019-03-12T02:14:31.140Z,1011.61
2019-03-12T02:15:31.225Z,1011.66
2019-03-12T02:16:31.151Z,1011.63
2019-03-12T02:17:31.144Z,1011.62
2019-03-12T02:18:31.144Z,1011.60
2019-03-12T02:19:31.219Z,1011.58
2019-03-12T02:20:31.222Z,1011.62
2019-03-12T02:21:31.148Z,1011.67
2019-03-12T02:22:31.145Z,1011.68
2019-03-12T02:23:31.221Z,1011.67
2019-03-12T02:24:31.281Z,1011.68
2019-03-12T02:25:31.229Z,1011.68
2019-03-12T02:26:31.149Z,1011.64
2019-03-12T02:27:31.221Z,1011.65
2019-03-12T02:28:31.234Z,1011.62
2019-03-12T02:29:31.157Z,1011.61
2019-03-12T02:30:31.239Z,1011.54
2019-03-12T02:31:31.229Z,1011.54
2019-03-12T02:32:31.228Z,1011.57
2019-03-12T02:33:31.271Z,1011.61
2019-03-12T02:34:31.248Z,1011.62
2019-03-12T02:35:31.234Z,1011.57
2019-03-12T02:36:31.191Z,1011.54
2019-03-12T02:37:31.162Z,1011.52
2019-03-12T02:38:31.239Z,1011.45
2019-03-12T02:39:31.176Z,1011.42
2019-03-12T02:40:31.240Z,1011.47
2019-03-12T02:41:31.242Z,1011.44
2019-03-12T02:42:31.235Z,1011.40
2019-03-12T02:43:31.182Z,1011.41
2019-03-12T02:44:31.132Z,1011.41
2019-03-12T02:45:31.106Z,1011.38
2019-03-12T02:46:31.227Z,1011.37
2019-03-12T02:47:31.228Z,1011.36
2019-03-12T02:48:31.187Z,1011.32
2019-03-12T02:49:31.217Z,1011.34
2019-03-12T02:50:31.424Z,1011.35
2019-03-12T02:51:31.188Z,1011.33
2019-03-12T02:52:31.214Z,1011.33
2019-03-12T02:53:31.164Z,1011.31
2019-03-12T02:54:31.234Z,1011.32
2019-03-12T02:55:31.163Z,1011.31
2019-03-12T02:56:31.236Z,1011.30
2019-03-12T02:57:31.168Z,1011.24
2019-03-12T02:58:31.233Z,1011.24
2019-03-12T02:59:31.174Z,1011.22
2019-03-12T03:00:31.168Z,1011.18
2019-03-12T03:01:31.175Z,1011.20
2019-03-12T03:02:31.169Z,1011.15
2019-03-12T03:03:31.129Z,1011.20
2019-03-12T03:04:31.261Z,1011.19
2019-03-12T03:05:31.180Z,1011.18
2019-03-12T03:06:31.334Z,1011.25
2019-03-12T03:07:31.193Z,1011.19
2019-03-12T03:08:31.258Z,1011.23
2019-03-12T03:09:31.258Z,1011.25
2019-03-12T03:10:31.287Z,1011.29
2019-03-12T03:11:31.200Z,1011.30
2019-03-12T03:12:31.317Z,1011.27
2019-03-12T03:13:31.203Z,1011.29
2019-03-12T03:14:31.256Z,1011.28
2019-03-12T03:15:31.259Z,1011.29
2019-03-12T03:16:31.131Z,1011.30
2019-03-12T03:17:31.247Z,1011.32
2019-03-12T03:18:31.232Z,1011.33
2019-03-12T03:19:31.209Z,1011.33
2019-03-12T03:20:31.235Z,1011.34
2019-03-12T03:21:31.152Z,1011.40
2019-03-12T03:22:31.262Z,1011.42
2019-03-12T03:23:31.247Z,1011.43
2019-03-12T03:24:31.338Z,1011.38
2019-03-12T03:25:31.285Z,1011.43
2019-03-12T03:26:31.225Z,1011.46
2019-03-12T03:27:31.235Z,1011.48
2019-03-12T03:28:31.255Z,1011.48
2019-03-12T03:29:31.216Z,1011.48
2019-03-12T03:30:31.280Z,1011.47
2019-03-12T03:31:31.161Z,1011.51
2019-03-12T03:32:31.226Z,1011.48
2019-03-12T03:33:31.215Z,1011.46
2019-03-12T03:34:31.297Z,1011.47
2019-03-12T03:35:31.237Z,1011.45
2019-03-12T03:36:31.208Z,1011.48
2019-03-12T03:37:31.289Z,1011.48
2019-03-12T03:38:31.271Z,1011.45
2019-03-12T03:39:31.301Z,1011.43
2019-03-12T03:40:31.232Z,1011.43
2019-03-12T03:41:34.525Z,1011.44
2019-03-12T03:42:31.223Z,1011.52
2019-03-12T03:43:31.289Z,1011.51
2019-03-12T03:44:31.275Z,1011.48
2019-03-12T03:45:31.204Z,1011.48
2019-03-12T03:46:31.197Z,1011.47
2019-03-12T03:47:31.273Z,1011.44
2019-03-12T03:48:31.280Z,1011.44
2019-03-12T03:49:31.210Z,1011.45
2019-03-12T03:50:31.206Z,1011.42
2019-03-12T03:51:31.273Z,1011.43
2019-03-12T03:52:31.214Z,1011.39
2019-03-12T03:53:31.275Z,1011.40
2019-03-12T03:54:31.215Z,1011.39
2019-03-12T03:55:31.222Z,1011.38
2019-03-12T03:56:31.297Z,1011.43
2019-03-12T03:57:31.224Z,1011.35
2019-03-12T03:58:31.218Z,1011.35
2019-03-12T03:59:31.216Z,1011.30
2019-03-12T04:00:31.294Z,1011.27
2019-03-12T04:01:31.362Z,1011.28
2019-03-12T04:02:31.298Z,1011.26
2019-03-12T04:03:31.219Z,1011.23
2019-03-12T04:04:31.223Z,1011.22
2019-03-12T04:05:31.237Z,1011.19
2019-03-12T04:06:34.181Z,1011.20
2019-03-12T04:07:31.311Z,1011.15
2019-03-12T04:08:31.229Z,1011.15
2019-03-12T04:09:31.304Z,1011.19
2019-03-12T04:10:31.315Z,1011.24
2019-03-12T04:11:31.291Z,1011.21
2019-03-12T04:12:31.251Z,1011.21
2019-03-12T04:13:31.250Z,1011.17
2019-03-12T04:14:31.243Z,1011.17
2019-03-12T04:15:31.294Z,1011.18
2019-03-12T04:16:31.250Z,1011.17
2019-03-12T04:17:31.251Z,1011.20
2019-03-12T04:18:31.249Z,1011.22
2019-03-12T04:19:31.272Z,1011.25
2019-03-12T04:20:31.323Z,1011.23
2019-03-12T04:21:31.306Z,1011.22
2019-03-12T04:22:31.307Z,1011.25
2019-03-12T04:23:31.312Z,1011.17
2019-03-12T04:24:31.353Z,1011.15
2019-03-12T04:25:31.257Z,1011.18
2019-03-12T04:26:31.241Z,1011.15
2019-03-12T04:27:31.318Z,1011.13
2019-03-12T04:28:31.375Z,1011.15
2019-03-12T04:29:31.242Z,1011.15
2019-03-12T04:30:31.255Z,1011.10
2019-03-12T04:31:31.313Z,1011.14
2019-03-12T04:32:31.253Z,1011.15
2019-03-12T04:33:31.362Z,1011.17
2019-03-12T04:34:31.209Z,1011.21
2019-03-12T04:35:31.315Z,1011.19
2019-03-12T04:36:31.270Z,1011.21
2019-03-12T04:37:31.322Z,1011.18
2019-03-12T04:38:31.327Z,1011.16
2019-03-12T04:39:31.245Z,1011.17
2019-03-12T04:40:31.262Z,1011.12
2019-03-12T04:41:31.331Z,1011.15
2019-03-12T04:42:31.326Z,1011.22
2019-03-12T04:43:31.250Z,1011.19
2019-03-12T04:44:31.163Z,1011.18
2019-03-12T04:45:31.256Z,1011.17
2019-03-12T04:46:31.263Z,1011.19
2019-03-12T04:47:31.285Z,1011.14
2019-03-12T04:48:31.165Z,1011.16
2019-03-12T04:49:31.331Z,1011.15
2019-03-12T04:50:31.169Z,1011.17
2019-03-12T04:51:31.169Z,1011.15
2019-03-12T04:52:31.258Z,1011.14
2019-03-12T04:53:31.168Z,1011.14
2019-03-12T04:54:31.270Z,1011.11
2019-03-12T04:55:31.400Z,1011.11
2019-03-12T04:56:31.259Z,1011.14
2019-03-12T04:57:31.345Z,1011.07
2019-03-12T04:58:31.329Z,1011.07
2019-03-12T04:59:31.274Z,1011.06
2019-03-12T05:00:31.228Z,1011.11
2019-03-12T05:01:31.336Z,1011.13
2019-03-12T05:02:31.339Z,1011.10
2019-03-12T05:03:31.324Z,1011.10
2019-03-12T05:04:31.263Z,1011.07
2019-03-12T05:05:31.275Z,1011.05
2019-03-12T05:06:31.338Z,1010.99
2019-03-12T05:07:31.340Z,1011.01
2019-03-12T05:08:31.267Z,1010.98
2019-03-12T05:09:31.270Z,1010.93
2019-03-12T05:10:31.341Z,1010.99
2019-03-12T05:11:31.391Z,1010.99
2019-03-12T05:12:31.340Z,1010.92
2019-03-12T05:13:31.346Z,1010.91
2019-03-12T05:14:31.265Z,1010.91
2019-03-12T05:15:31.330Z,1010.92
2019-03-12T05:16:31.279Z,1010.96
2019-03-12T05:17:31.415Z,1010.89
2019-03-12T05:18:31.263Z,1010.87
2019-03-12T05:19:31.266Z,1010.91
2019-03-12T05:20:31.261Z,1010.89
2019-03-12T05:21:31.280Z,1010.91
2019-03-12T05:22:31.336Z,1010.92
2019-03-12T05:23:31.271Z,1010.91
2019-03-12T05:24:31.342Z,1010.93
2019-03-12T05:25:31.348Z,1010.91
2019-03-12T05:26:31.357Z,1010.85
2019-03-12T05:27:31.348Z,1010.86
2019-03-12T05:28:31.280Z,1010.89
2019-03-12T05:29:31.279Z,1010.86
2019-03-12T05:30:31.355Z,1010.80
2019-03-12T05:31:31.281Z,1010.80
2019-03-12T05:32:31.282Z,1010.80
2019-03-12T05:33:31.298Z,1010.80
2019-03-12T05:34:31.368Z,1010.87
2019-03-12T05:35:31.351Z,1010.86
2019-03-12T05:36:31.255Z,1010.85
2019-03-12T05:37:31.360Z,1010.85
2019-03-12T05:38:31.306Z,1010.82
2019-03-12T05:39:31.359Z,1010.84
2019-03-12T05:40:31.298Z,1010.79
2019-03-12T05:41:31.476Z,1010.79
2019-03-12T05:42:31.359Z,1010.79
2019-03-12T05:43:31.368Z,1010.77
2019-03-12T05:44:31.375Z,1010.78
2019-03-12T05:45:31.339Z,1010.76
2019-03-12T05:46:31.283Z,1010.79
2019-03-12T05:47:31.277Z,1010.74
2019-03-12T05:48:31.355Z,1010.74
2019-03-12T05:49:31.337Z,1010.78
2019-03-12T05:50:31.340Z,1010.76
2019-03-12T05:51:31.339Z,1010.76
2019-03-12T05:52:31.232Z,1010.81
2019-03-12T05:53:31.312Z,1010.79
2019-03-12T05:54:31.342Z,1010.81
2019-03-12T05:55:31.326Z,1010.75
2019-03-12T05:56:31.283Z,1010.74
2019-03-12T05:57:31.361Z,1010.73
2019-03-12T05:58:31.362Z,1010.75
2019-03-12T05:59:31.368Z,1010.77
2019-03-12T06:00:31.289Z,1010.70
2019-03-12T06:01:31.364Z,1010.72
2019-03-12T06:02:31.411Z,1010.68
2019-03-12T06:03:31.380Z,1010.65
2019-03-12T06:04:31.320Z,1010.62
2019-03-12T06:05:31.313Z,1010.66
2019-03-12T06:06:31.385Z,1010.61
2019-03-12T06:07:31.373Z,1010.60
2019-03-12T06:08:31.374Z,1010.54
2019-03-12T06:09:31.375Z,1010.57
2019-03-12T06:10:31.391Z,1010.49
2019-03-12T06:11:31.324Z,1010.53
2019-03-12T06:12:31.314Z,1010.54
2019-03-12T06:13:31.317Z,1010.49
2019-03-12T06:14:31.318Z,1010.48
2019-03-12T06:15:31.311Z,1010.52
2019-03-12T06:16:31.310Z,1010.51
2019-03-12T06:17:31.381Z,1010.49
2019-03-12T06:18:31.316Z,1010.54
2019-03-12T06:19:31.383Z,1010.53
2019-03-12T06:20:31.319Z,1010.52
2019-03-12T06:21:31.395Z,1010.50
2019-03-12T06:22:31.317Z,1010.57
2019-03-12T06:23:31.385Z,1010.54
2019-03-12T06:24:31.385Z,1010.52
2019-03-12T06:25:31.283Z,1010.53
2019-03-12T06:26:31.334Z,1010.49
2019-03-12T06:27:31.405Z,1010.50
2019-03-12T06:28:31.420Z,1010.42
2019-03-12T06:29:31.322Z,1010.50
2019-03-12T06:30:31.393Z,1010.48
2019-03-12T06:31:31.399Z,1010.49
2019-03-12T06:32:31.320Z,1010.50
2019-03-12T06:33:31.324Z,1010.45
2019-03-12T06:34:31.330Z,1010.51
2019-03-12T06:35:31.396Z,1010.46
2019-03-12T06:36:31.336Z,1010.47
2019-03-12T06:37:31.419Z,1010.44
2019-03-12T06:38:31.399Z,1010.43
2019-03-12T06:39:31.328Z,1010.45
2019-03-12T06:40:31.358Z,1010.43
2019-03-12T06:41:31.337Z,1010.41
2019-03-12T06:42:31.332Z,1010.42
2019-03-12T06:43:31.400Z,1010.38
2019-03-12T06:44:31.408Z,1010.37
2019-03-12T06:45:31.391Z,1010.35
2019-03-12T06:46:31.304Z,1010.38
2019-03-12T06:47:31.482Z,1010.41
2019-03-12T06:48:31.274Z,1010.33
2019-03-12T06:49:31.408Z,1010.37
2019-03-12T06:50:31.331Z,1010.41
2019-03-12T06:51:31.306Z,1010.36
2019-03-12T06:52:31.329Z,1010.35
2019-03-12T06:53:31.312Z,1010.31
2019-03-12T06:54:31.324Z,1010.29
2019-03-12T06:55:31.410Z,1010.30
2019-03-12T06:56:31.411Z,1010.25
2019-03-12T06:57:31.417Z,1010.22
2019-03-12T06:58:31.412Z,1010.29
2019-03-12T06:59:31.372Z,1010.23
2019-03-12T07:00:31.344Z,1010.16
2019-03-12T07:01:31.344Z,1010.18
2019-03-12T07:02:31.412Z,1010.16
2019-03-12T07:03:31.349Z,1010.18
2019-03-12T07:04:31.415Z,1010.19
2019-03-12T07:05:31.353Z,1010.15
2019-03-12T07:06:31.414Z,1010.16
2019-03-12T07:07:31.420Z,1010.15
2019-03-12T07:08:31.347Z,1010.13
2019-03-12T07:09:31.423Z,1010.19
2019-03-12T07:10:31.349Z,1010.16
2019-03-12T07:11:31.420Z,1010.10
2019-03-12T07:12:31.348Z,1010.14
2019-03-12T07:13:31.358Z,1010.19
2019-03-12T07:14:31.421Z,1010.17
2019-03-12T07:15:31.417Z,1010.19
2019-03-12T07:16:31.416Z,1010.13
2019-03-12T07:17:31.419Z,1010.09
2019-03-12T07:18:31.298Z,1010.15
2019-03-12T07:19:31.424Z,1010.10
2019-03-12T07:20:31.434Z,1010.07
2019-03-12T07:21:31.353Z,1010.00
2019-03-12T07:22:31.363Z,1010.01
2019-03-12T07:23:31.393Z,1009.97
2019-03-12T07:24:31.418Z,1009.95
2019-03-12T07:25:31.427Z,1009.97
2019-03-12T07:26:31.368Z,1009.97
2019-03-12T07:27:31.438Z,1009.95
2019-03-12T07:28:31.365Z,1009.92
2019-03-12T07:29:31.431Z,1009.89
2019-03-12T07:30:31.362Z,1009.89
2019-03-12T07:31:31.367Z,1009.83
2019-03-12T07:32:31.431Z,1009.80
2019-03-12T07:33:31.406Z,1009.81
2019-03-12T07:34:36.513Z,1009.78
2019-03-12T07:35:31.356Z,1009.73
2019-03-12T07:36:31.343Z,1009.78
2019-03-12T07:37:31.376Z,1009.73
2019-03-12T07:38:31.389Z,1009.69
2019-03-12T07:39:31.427Z,1009.68
2019-03-12T07:40:31.366Z,1009.67
2019-03-12T07:41:32.749Z,1009.68
2019-03-12T07:42:31.399Z,1009.63
2019-03-12T07:43:31.365Z,1009.61
2019-03-12T07:44:31.352Z,1009.57
2019-03-12T07:45:31.431Z,1009.59
2019-03-12T07:46:31.360Z,1009.57
2019-03-12T07:47:35.941Z,1009.54
2019-03-12T07:48:31.379Z,1009.56
2019-03-12T07:49:31.378Z,1009.51
2019-03-12T07:50:31.341Z,1009.52
2019-03-12T07:51:31.349Z,1009.49
2019-03-12T07:52:31.442Z,1009.49
2019-03-12T07:53:31.399Z,1009.45
2019-03-12T07:54:31.417Z,1009.46
2019-03-12T07:55:31.437Z,1009.42
2019-03-12T07:56:31.358Z,1009.37
2019-03-12T07:58:35.981Z,1009.30
2019-03-12T07:59:31.379Z,1009.28
2019-03-12T08:00:31.324Z,1009.27
2019-03-12T08:01:31.445Z,1009.28
2019-03-12T08:02:31.470Z,1009.21
2019-03-12T08:03:31.447Z,1009.28
2019-03-12T08:04:31.377Z,1009.22
2019-03-12T08:05:31.450Z,1009.21
2019-03-12T08:06:31.344Z,1009.20
2019-03-12T08:07:31.369Z,1009.20
2019-03-12T08:08:31.406Z,1009.21
2019-03-12T08:09:31.363Z,1009.18
2019-03-12T08:10:33.773Z,1009.21
2019-03-12T08:11:31.454Z,1009.22
2019-03-12T08:12:34.277Z,1009.17
2019-03-12T08:13:31.380Z,1009.13
2019-03-12T08:14:31.382Z,1009.16
2019-03-12T08:15:31.411Z,1009.17
2019-03-12T08:16:31.557Z,1009.13
2019-03-12T08:17:31.457Z,1009.16
2019-03-12T08:18:31.395Z,1009.13
2019-03-12T08:19:31.455Z,1009.15
2019-03-12T08:20:31.393Z,1009.13
2019-03-12T08:21:31.403Z,1009.08
2019-03-12T08:22:31.377Z,1009.08
2019-03-12T08:23:31.342Z,1009.05
2019-03-12T08:24:31.397Z,1009.06
2019-03-12T08:25:31.483Z,1009.01
2019-03-12T08:26:31.470Z,1008.98
2019-03-12T08:27:31.404Z,1008.99
2019-03-12T08:28:31.475Z,1008.90
2019-03-12T08:29:31.413Z,1008.92
2019-03-12T08:30:31.475Z,1008.89
2019-03-12T08:31:31.483Z,1008.83
2019-03-12T08:32:31.407Z,1008.80
2019-03-12T08:33:31.430Z,1008.81
2019-03-12T08:34:31.478Z,1008.77
2019-03-12T08:35:31.435Z,1008.79
2019-03-12T08:36:31.378Z,1008.75
2019-03-12T08:37:31.476Z,1008.71
2019-03-12T08:38:31.418Z,1008.68
2019-03-12T08:39:31.482Z,1008.64
2019-03-12T08:40:31.488Z,1008.61
2019-03-12T08:41:31.413Z,1008.62
2019-03-12T08:42:31.482Z,1008.63
2019-03-12T08:43:31.417Z,1008.56
2019-03-12T08:44:31.484Z,1008.58
2019-03-12T08:45:31.402Z,1008.57
2019-03-12T08:46:31.478Z,1008.50
2019-03-12T08:47:31.405Z,1008.52
2019-03-12T08:48:31.426Z,1008.49
2019-03-12T08:49:34.668Z,1008.47
2019-03-12T08:50:31.482Z,1008.42
2019-03-12T08:51:31.392Z,1008.37
2019-03-12T08:52:31.458Z,1008.39
2019-03-12T08:53:31.492Z,1008.37
2019-03-12T08:54:31.398Z,1008.33
2019-03-12T08:55:31.399Z,1008.29
2019-03-12T08:56:32.818Z,1008.24
2019-03-12T08:57:31.380Z,1008.22
2019-03-12T08:58:31.421Z,1008.23
2019-03-12T08:59:31.487Z,1008.18
2019-03-12T09:00:31.490Z,1008.19
2019-03-12T09:01:31.422Z,1008.20
2019-03-12T09:02:31.490Z,1008.23
2019-03-12T09:03:31.457Z,1008.22
2019-03-12T09:04:31.460Z,1008.19
2019-03-12T09:05:31.401Z,1008.19
2019-03-12T09:06:31.495Z,1008.16
2019-03-12T09:07:31.459Z,1008.12
2019-03-12T09:08:31.454Z,1008.12
2019-03-12T09:09:31.421Z,1008.04
2019-03-12T09:10:31.489Z,1008.05
2019-03-12T09:11:31.424Z,1008.02
2019-03-12T09:12:31.510Z,1008.06
2019-03-12T09:13:31.425Z,1008.05
2019-03-12T09:14:31.433Z,1008.03
2019-03-12T09:15:31.507Z,1008.00
2019-03-12T09:16:31.512Z,1007.93
2019-03-12T09:17:31.506Z,1007.87
2019-03-12T09:18:31.441Z,1007.91
2019-03-12T09:19:31.518Z,1007.85
2019-03-12T09:20:31.512Z,1007.86
2019-03-12T09:21:31.441Z,1007.87
2019-03-12T09:22:31.535Z,1007.84
2019-03-12T09:23:31.511Z,1007.79
2019-03-12T09:24:31.465Z,1007.80
2019-03-12T09:25:31.514Z,1007.79
2019-03-12T09:26:31.520Z,1007.76
2019-03-12T09:27:31.512Z,1007.76
2019-03-12T09:28:31.516Z,1007.70
2019-03-12T09:29:31.525Z,1007.67
2019-03-12T09:30:31.455Z,1007.65
2019-03-12T09:31:31.525Z,1007.64
2019-03-12T09:32:31.449Z,1007.57
2019-03-12T09:33:31.450Z,1007.56
2019-03-12T09:34:31.529Z,1007.62
2019-03-12T09:35:31.523Z,1007.53
2019-03-12T09:36:31.482Z,1007.51
2019-03-12T09:37:31.526Z,1007.55
2019-03-12T09:38:31.524Z,1007.50
2019-03-12T09:39:31.467Z,1007.50
2019-03-12T09:40:31.532Z,1007.44
2019-03-12T09:41:31.522Z,1007.46
2019-03-12T09:42:31.459Z,1007.42
2019-03-12T09:43:31.524Z,1007.39
2019-03-12T09:44:31.473Z,1007.43
2019-03-12T09:45:31.464Z,1007.34
2019-03-12T09:46:31.530Z,1007.32
2019-03-12T09:47:31.539Z,1007.35
2019-03-12T09:48:31.533Z,1007.31
2019-03-12T09:49:31.469Z,1007.30
2019-03-12T09:50:31.531Z,1007.26
2019-03-12T09:51:31.463Z,1007.24
2019-03-12T09:52:31.541Z,1007.21
2019-03-12T09:53:31.536Z,1007.19
2019-03-12T09:54:31.467Z,1007.19
2019-03-12T09:55:31.472Z,1007.16
2019-03-12T09:56:31.470Z,1007.09
2019-03-12T09:57:31.538Z,1007.04
2019-03-12T09:58:31.475Z,1007.07
2019-03-12T09:59:31.546Z,1007.05
2019-03-12T10:00:31.470Z,1007.05
2019-03-12T10:01:31.538Z,1007.11
2019-03-12T10:02:31.541Z,1007.05
2019-03-12T10:03:31.546Z,1007.07
2019-03-12T10:04:31.539Z,1006.97
2019-03-12T10:05:31.473Z,1007.09
2019-03-12T10:06:31.542Z,1006.96
2019-03-12T10:07:31.485Z,1007.04
2019-03-12T10:08:31.572Z,1007.03
2019-03-12T10:09:31.630Z,1006.97
2019-03-12T10:10:31.483Z,1006.93
2019-03-12T10:11:31.477Z,1006.95
2019-03-12T10:12:31.555Z,1006.90
2019-03-12T10:13:31.555Z,1006.84
2019-03-12T10:14:31.483Z,1006.86
2019-03-12T10:15:31.525Z,1006.87
2019-03-12T10:16:31.528Z,1006.85
2019-03-12T10:17:31.454Z,1006.80
2019-03-12T10:18:31.479Z,1006.79
2019-03-12T10:19:31.532Z,1006.75
2019-03-12T10:20:31.532Z,1006.72
2019-03-12T10:21:31.477Z,1006.71
2019-03-12T10:22:31.485Z,1006.72
2019-03-12T10:23:31.496Z,1006.66
2019-03-12T10:24:31.461Z,1006.62
2019-03-12T10:25:31.492Z,1006.59
2019-03-12T10:26:31.488Z,1006.49
2019-03-12T10:27:31.570Z,1006.54
2019-03-12T10:28:31.555Z,1006.47
2019-03-12T10:29:31.492Z,1006.40
2019-03-12T10:30:31.491Z,1006.46
2019-03-12T10:31:31.542Z,1006.46
2019-03-12T10:32:31.568Z,1006.36
2019-03-12T10:33:31.501Z,1006.30
2019-03-12T10:34:31.564Z,1006.31
2019-03-12T10:35:31.505Z,1006.25
2019-03-12T10:36:31.486Z,1006.30
2019-03-12T10:37:31.485Z,1006.18
2019-03-12T10:38:31.572Z,1006.23
2019-03-12T10:39:31.555Z,1006.23
2019-03-12T10:40:31.529Z,1006.21
2019-03-12T10:41:31.553Z,1006.21
2019-03-12T10:42:31.492Z,1006.16
2019-03-12T10:43:31.511Z,1006.15
2019-03-12T10:44:31.474Z,1006.11
2019-03-12T10:45:31.578Z,1006.19
2019-03-12T10:46:31.542Z,1006.08
2019-03-12T10:47:31.567Z,1006.07
2019-03-12T10:48:31.506Z,1005.97
2019-03-12T10:49:37.455Z,1006.01
2019-03-12T10:50:31.584Z,1006.00
2019-03-12T10:51:31.577Z,1005.95
2019-03-12T10:52:31.584Z,1005.90
2019-03-12T10:53:31.508Z,1005.93
2019-03-12T10:54:31.510Z,1005.90
2019-03-12T10:55:31.596Z,1005.92
2019-03-12T10:56:31.509Z,1005.90
2019-03-12T10:57:31.526Z,1005.89
2019-03-12T10:58:31.513Z,1005.87
2019-03-12T10:59:31.580Z,1005.84
2019-03-12T11:00:31.590Z,1005.82
2019-03-12T11:01:31.600Z,1005.84
2019-03-12T11:02:31.511Z,1005.86
2019-03-12T11:03:31.585Z,1005.77
2019-03-12T11:04:31.584Z,1005.79
2019-03-12T11:05:44.906Z,1005.84
2019-03-12T11:06:31.588Z,1005.80
2019-03-12T11:07:31.524Z,1005.74
2019-03-12T11:08:31.588Z,1005.79
2019-03-12T11:09:31.590Z,1005.73
2019-03-12T11:10:31.545Z,1005.74
2019-03-12T11:11:31.589Z,1005.72
2019-03-12T11:12:31.535Z,1005.67
2019-03-12T11:13:31.602Z,1005.61
2019-03-12T11:14:31.593Z,1005.66
2019-03-12T11:15:31.515Z,1005.59
2019-03-12T11:16:31.513Z,1005.60
2019-03-12T11:17:31.585Z,1005.50
2019-03-12T11:18:31.523Z,1005.56
2019-03-12T11:19:31.466Z,1005.50
2019-03-12T11:20:31.517Z,1005.46
2019-03-12T11:21:31.544Z,1005.43
2019-03-12T11:22:31.513Z,1005.39
2019-03-12T11:23:31.484Z,1005.41
2019-03-12T11:24:31.560Z,1005.36
2019-03-12T11:25:31.530Z,1005.34
2019-03-12T11:26:31.601Z,1005.30
2019-03-12T11:27:31.537Z,1005.35
2019-03-12T11:28:31.610Z,1005.36
2019-03-12T11:29:31.533Z,1005.25
2019-03-12T11:30:31.570Z,1005.22
2019-03-12T11:31:31.533Z,1005.21
2019-03-12T11:32:31.607Z,1005.21
2019-03-12T11:33:31.544Z,1005.15
2019-03-12T11:34:31.606Z,1005.07
2019-03-12T11:35:38.753Z,1005.06
2019-03-12T11:36:31.745Z,1005.01
2019-03-12T11:37:31.562Z,1005.01
2019-03-12T11:38:31.623Z,1004.93
2019-03-12T11:39:31.652Z,1004.92
2019-03-12T11:40:32.774Z,1004.88
2019-03-12T11:41:31.605Z,1004.79
2019-03-12T11:42:31.642Z,1004.76
2019-03-12T11:43:31.649Z,1004.72
2019-03-12T11:44:31.643Z,1004.74
2019-03-12T11:45:36.766Z,1004.77
2019-03-12T11:46:41.388Z,1004.78
2019-03-12T11:47:31.638Z,1004.67
2019-03-12T11:48:31.628Z,1004.66
2019-03-12T11:49:31.629Z,1004.63
2019-03-12T11:50:31.549Z,1004.65
2019-03-12T11:51:31.669Z,1004.60
2019-03-12T11:52:31.615Z,1004.57
2019-03-12T11:53:31.745Z,1004.56
2019-03-12T11:54:31.550Z,1004.49
2019-03-12T11:55:31.621Z,1004.46
2019-03-12T11:56:31.566Z,1004.46
2019-03-12T11:57:31.725Z,1004.44
2019-03-12T11:58:31.575Z,1004.43
2019-03-12T11:59:31.575Z,1004.42
2019-03-12T12:00:31.660Z,1004.37
2019-03-12T12:01:31.575Z,1004.34
2019-03-12T12:02:31.629Z,1004.37
2019-03-12T12:03:31.557Z,1004.31
2019-03-12T12:04:31.639Z,1004.32
2019-03-12T12:05:31.599Z,1004.25
2019-03-12T12:06:31.527Z,1004.13